This is the latest recevied weather packets stored in our database for station/object WC4PEM-14. If no packets are shown the sender has not sent any weather packets the latest 10 day(s).
| Time | Temp. | Humidity | Pressure | Rain* | Wind** | Luminosity | Snow |
|---|---|---|---|---|---|---|---|
| 1777231713 | 32.22° C | 48% | 1009.2 hPa | 0 mm | - | - | - |
| 1777231494 | 31.11° C | 49% | 1009.2 hPa | 0 mm | - | - | - |
| 1777231413 | 31.11° C | 49% | 1009.2 hPa | 0 mm | - | - | - |
| 1777231233 | 31.11° C | 49% | 1009.4 hPa | 0 mm | - | - | - |
| 1777231113 | 31.11° C | 49% | 1009.4 hPa | 0 mm | - | - | - |
| 1777230990 | 30.56° C | 53% | 1009.4 hPa | 0 mm | - | - | - |
| 1777230813 | 30.56° C | 53% | 1009.4 hPa | 0 mm | - | - | - |
| 1777230628 | 30.56° C | 56% | 1009.4 hPa | 0 mm | - | - | - |
| 1777230594 | 30.56° C | 56% | 1009.4 hPa | 0 mm | - | - | - |
| 1777230513 | 30.56° C | 56% | 1009.4 hPa | 0 mm | - | - | - |
| 1777230345 | 30° C | 55% | 1009.4 hPa | 0 mm | - | - | - |
| 1777230213 | 30° C | 55% | 1009.4 hPa | 0 mm | - | - | - |
| 1777230024 | 30.56° C | 54% | 1009.5 hPa | 0 mm | - | - | - |
| 1777229913 | 30.56° C | 54% | 1009.5 hPa | 0 mm | - | - | - |
| 1777229725 | 31.11° C | 52% | 1009.6 hPa | 0 mm | - | - | - |
| 1777229613 | 31.11° C | 52% | 1009.6 hPa | 0 mm | - | - | - |
| 1777229447 | 30.56° C | 52% | 1009.6 hPa | 0 mm | - | - | - |
| 1777229313 | 30.56° C | 52% | 1009.6 hPa | 0 mm | - | - | - |
| 1777229125 | 30.56° C | 53% | 1009.6 hPa | 0 mm | - | - | - |
| 1777229013 | 30.56° C | 53% | 1009.6 hPa | 0 mm | - | - | - |
| 1777228713 | 30.56° C | 54% | 1009.6 hPa | 0 mm | - | - | - |
| 1777228536 | 31.11° C | 51% | 1009.7 hPa | 0 mm | - | - | - |
| 1777228413 | 31.11° C | 51% | 1009.7 hPa | 0 mm | - | - | - |
| 1777228317 | 30.56° C | 52% | 1009.7 hPa | 0 mm | - | - | - |
| 1777228113 | 30.56° C | 52% | 1009.7 hPa | 0 mm | - | - | - |
* Rain latest hour (hover to see other rain measurements)
** Current wind speed in m/s (hover to see current wind gust speed)